sensor_id;sensor_type;location;lat;lon;timestamp;P1;durP1;ratioP1;P2;durP2;ratioP2
53389;SDS011;39288;42.970;1.524;2023-04-29T00:00:41;9.93;;;6.23;;
53389;SDS011;39288;42.970;1.524;2023-04-29T00:01:41;8.90;;;6.17;;
53389;SDS011;39288;42.970;1.524;2023-04-29T00:02:42;14.03;;;6.30;;
53389;SDS011;39288;42.970;1.524;2023-04-29T00:03:43;11.60;;;6.30;;
53389;SDS011;39288;42.970;1.524;2023-04-29T00:04:43;8.03;;;6.47;;
53389;SDS011;39288;42.970;1.524;2023-04-29T00:05:44;10.20;;;6.10;;
53389;SDS011;39288;42.970;1.524;2023-04-29T00:06:44;13.93;;;6.70;;
53389;SDS011;39288;42.970;1.524;2023-04-29T00:07:44;10.90;;;7.13;;
53389;SDS011;39288;42.970;1.524;2023-04-29T00:08:45;9.83;;;6.33;;
53389;SDS011;39288;42.970;1.524;2023-04-29T00:09:45;10.50;;;7.10;;
53389;SDS011;39288;42.970;1.524;2023-04-29T00:10:46;12.13;;;7.40;;
53389;SDS011;39288;42.970;1.524;2023-04-29T00:11:46;11.77;;;6.80;;
53389;SDS011;39288;42.970;1.524;2023-04-29T00:12:47;9.43;;;5.93;;
53389;SDS011;39288;42.970;1.524;2023-04-29T00:13:47;8.67;;;4.87;;
53389;SDS011;39288;42.970;1.524;2023-04-29T00:14:48;9.83;;;5.00;;
53389;SDS011;39288;42.970;1.524;2023-04-29T00:15:48;11.80;;;6.07;;
53389;SDS011;39288;42.970;1.524;2023-04-29T00:16:49;8.60;;;5.93;;
53389;SDS011;39288;42.970;1.524;2023-04-29T00:17:50;8.27;;;5.40;;
53389;SDS011;39288;42.970;1.524;2023-04-29T00:18:51;6.97;;;5.20;;
53389;SDS011;39288;42.970;1.524;2023-04-29T00:19:51;7.83;;;5.87;;
53389;SDS011;39288;42.970;1.524;2023-04-29T00:20:52;10.67;;;5.57;;
53389;SDS011;39288;42.970;1.524;2023-04-29T00:21:52;12.17;;;6.00;;
53389;SDS011;39288;42.970;1.524;2023-04-29T00:22:53;10.48;;;5.70;;
53389;SDS011;39288;42.970;1.524;2023-04-29T00:23:54;12.00;;;6.57;;
53389;SDS011;39288;42.970;1.524;2023-04-29T00:24:55;9.10;;;6.87;;
53389;SDS011;39288;42.970;1.524;2023-04-29T00:25:55;8.43;;;6.03;;
53389;SDS011;39288;42.970;1.524;2023-04-29T00:26:56;10.63;;;6.50;;
53389;SDS011;39288;42.970;1.524;2023-04-29T00:27:56;11.17;;;6.40;;
53389;SDS011;39288;42.970;1.524;2023-04-29T00:29:00;9.55;;;6.47;;
53389;SDS011;39288;42.970;1.524;2023-04-29T00:30:01;8.93;;;7.43;;
53389;SDS011;39288;42.970;1.524;2023-04-29T00:31:02;8.27;;;7.00;;
53389;SDS011;39288;42.970;1.524;2023-04-29T00:32:03;10.00;;;7.03;;
53389;SDS011;39288;42.970;1.524;2023-04-29T00:33:04;9.80;;;7.37;;
53389;SDS011;39288;42.970;1.524;2023-04-29T00:34:04;10.67;;;6.93;;
53389;SDS011;39288;42.970;1.524;2023-04-29T00:35:05;6.47;;;5.70;;
53389;SDS011;39288;42.970;1.524;2023-04-29T00:36:06;16.60;;;8.18;;
53389;SDS011;39288;42.970;1.524;2023-04-29T00:37:07;9.40;;;7.30;;
53389;SDS011;39288;42.970;1.524;2023-04-29T00:38:08;10.17;;;7.17;;
53389;SDS011;39288;42.970;1.524;2023-04-29T00:39:08;8.07;;;7.07;;
53389;SDS011;39288;42.970;1.524;2023-04-29T00:40:09;14.17;;;7.10;;
53389;SDS011;39288;42.970;1.524;2023-04-29T00:41:09;9.47;;;7.50;;
53389;SDS011;39288;42.970;1.524;2023-04-29T00:42:10;11.37;;;8.10;;
53389;SDS011;39288;42.970;1.524;2023-04-29T00:43:11;11.33;;;8.70;;
53389;SDS011;39288;42.970;1.524;2023-04-29T00:44:11;8.33;;;7.43;;
53389;SDS011;39288;42.970;1.524;2023-04-29T00:45:12;9.17;;;6.83;;
53389;SDS011;39288;42.970;1.524;2023-04-29T00:46:12;8.20;;;6.77;;
53389;SDS011;39288;42.970;1.524;2023-04-29T00:47:12;12.33;;;7.43;;
53389;SDS011;39288;42.970;1.524;2023-04-29T00:48:13;9.27;;;7.13;;
53389;SDS011;39288;42.970;1.524;2023-04-29T00:49:14;9.95;;;7.05;;
53389;SDS011;39288;42.970;1.524;2023-04-29T00:50:15;7.97;;;7.27;;
53389;SDS011;39288;42.970;1.524;2023-04-29T00:51:15;12.07;;;7.13;;
53389;SDS011;39288;42.970;1.524;2023-04-29T00:52:17;12.50;;;7.00;;
53389;SDS011;39288;42.970;1.524;2023-04-29T00:53:18;9.23;;;7.18;;
53389;SDS011;39288;42.970;1.524;2023-04-29T00:54:19;11.63;;;7.78;;
53389;SDS011;39288;42.970;1.524;2023-04-29T00:55:20;10.80;;;8.37;;
53389;SDS011;39288;42.970;1.524;2023-04-29T00:56:20;13.73;;;8.40;;
53389;SDS011;39288;42.970;1.524;2023-04-29T00:57:21;14.70;;;9.43;;
53389;SDS011;39288;42.970;1.524;2023-04-29T00:58:22;13.53;;;10.50;;
53389;SDS011;39288;42.970;1.524;2023-04-29T00:59:29;12.77;;;10.43;;
53389;SDS011;39288;42.970;1.524;2023-04-29T01:00:31;12.63;;;10.10;;
53389;SDS011;39288;42.970;1.524;2023-04-29T01:01:32;13.30;;;10.55;;
53389;SDS011;39288;42.970;1.524;2023-04-29T01:02:32;14.70;;;11.13;;
53389;SDS011;39288;42.970;1.524;2023-04-29T01:03:33;15.90;;;11.20;;
53389;SDS011;39288;42.970;1.524;2023-04-29T01:04:34;15.00;;;11.73;;
53389;SDS011;39288;42.970;1.524;2023-04-29T01:05:34;14.90;;;11.70;;
53389;SDS011;39288;42.970;1.524;2023-04-29T01:09:33;21.50;;;12.52;;
53389;SDS011;39288;42.970;1.524;2023-04-29T01:10:48;15.25;;;11.02;;
53389;SDS011;39288;42.970;1.524;2023-04-29T01:12:05;15.13;;;12.55;;
53389;SDS011;39288;42.970;1.524;2023-04-29T01:13:29;13.52;;;11.98;;
53389;SDS011;39288;42.970;1.524;2023-04-29T01:14:34;14.38;;;12.18;;
53389;SDS011;39288;42.970;1.524;2023-04-29T01:17:01;13.38;;;10.77;;
53389;SDS011;39288;42.970;1.524;2023-04-29T01:18:19;14.95;;;13.23;;
53389;SDS011;39288;42.970;1.524;2023-04-29T01:20:05;15.98;;;13.65;;
53389;SDS011;39288;42.970;1.524;2023-04-29T01:20:48;14.98;;;13.38;;
53389;SDS011;39288;42.970;1.524;2023-04-29T01:21:50;19.55;;;13.55;;
53389;SDS011;39288;42.970;1.524;2023-04-29T01:22:51;16.92;;;15.13;;
53389;SDS011;39288;42.970;1.524;2023-04-29T01:23:52;17.63;;;15.17;;
53389;SDS011;39288;42.970;1.524;2023-04-29T01:24:56;17.10;;;15.38;;
53389;SDS011;39288;42.970;1.524;2023-04-29T01:25:57;16.48;;;14.73;;
53389;SDS011;39288;42.970;1.524;2023-04-29T01:27:01;16.33;;;14.65;;
53389;SDS011;39288;42.970;1.524;2023-04-29T01:29:50;10.27;;;8.57;;
53389;SDS011;39288;42.970;1.524;2023-04-29T01:33:45;10.88;;;9.77;;
53389;SDS011;39288;42.970;1.524;2023-04-29T01:35:15;10.60;;;8.35;;
53389;SDS011;39288;42.970;1.524;2023-04-29T01:38:10;13.98;;;11.30;;
53389;SDS011;39288;42.970;1.524;2023-04-29T01:40:42;14.20;;;12.43;;
53389;SDS011;39288;42.970;1.524;2023-04-29T01:42:58;12.27;;;8.55;;
53389;SDS011;39288;42.970;1.524;2023-04-29T01:44:01;10.70;;;8.65;;
53389;SDS011;39288;42.970;1.524;2023-04-29T01:45:04;12.48;;;9.13;;
53389;SDS011;39288;42.970;1.524;2023-04-29T01:46:07;12.52;;;10.10;;
53389;SDS011;39288;42.970;1.524;2023-04-29T01:47:09;9.95;;;8.85;;
53389;SDS011;39288;42.970;1.524;2023-04-29T01:48:13;11.73;;;9.35;;
53389;SDS011;39288;42.970;1.524;2023-04-29T01:49:13;13.37;;;10.07;;
53389;SDS011;39288;42.970;1.524;2023-04-29T01:50:14;12.17;;;10.00;;
53389;SDS011;39288;42.970;1.524;2023-04-29T01:51:14;13.07;;;10.50;;
53389;SDS011;39288;42.970;1.524;2023-04-29T01:52:15;11.20;;;9.10;;
53389;SDS011;39288;42.970;1.524;2023-04-29T01:53:15;10.90;;;9.77;;
53389;SDS011;39288;42.970;1.524;2023-04-29T01:54:16;11.60;;;10.27;;
53389;SDS011;39288;42.970;1.524;2023-04-29T01:55:16;10.57;;;9.57;;
53389;SDS011;39288;42.970;1.524;2023-04-29T01:56:17;14.67;;;13.17;;
53389;SDS011;39288;42.970;1.524;2023-04-29T01:57:17;15.80;;;13.57;;
53389;SDS011;39288;42.970;1.524;2023-04-29T01:58:18;11.30;;;10.10;;
53389;SDS011;39288;42.970;1.524;2023-04-29T01:59:18;12.07;;;9.23;;
53389;SDS011;39288;42.970;1.524;2023-04-29T02:00:19;12.38;;;8.85;;
53389;SDS011;39288;42.970;1.524;2023-04-29T02:01:20;12.88;;;9.15;;
53389;SDS011;39288;42.970;1.524;2023-04-29T02:02:21;11.00;;;9.90;;
53389;SDS011;39288;42.970;1.524;2023-04-29T02:03:22;9.45;;;8.40;;
53389;SDS011;39288;42.970;1.524;2023-04-29T02:04:23;11.00;;;8.60;;
53389;SDS011;39288;42.970;1.524;2023-04-29T02:05:24;13.20;;;10.32;;
53389;SDS011;39288;42.970;1.524;2023-04-29T02:06:24;10.37;;;9.23;;
53389;SDS011;39288;42.970;1.524;2023-04-29T02:07:25;13.53;;;9.90;;
53389;SDS011;39288;42.970;1.524;2023-04-29T02:08:26;11.88;;;8.82;;
53389;SDS011;39288;42.970;1.524;2023-04-29T02:09:27;10.37;;;9.30;;
53389;SDS011;39288;42.970;1.524;2023-04-29T02:10:27;13.50;;;9.67;;
53389;SDS011;39288;42.970;1.524;2023-04-29T02:11:28;12.87;;;9.30;;
53389;SDS011;39288;42.970;1.524;2023-04-29T02:12:28;11.67;;;9.97;;
53389;SDS011;39288;42.970;1.524;2023-04-29T02:13:29;12.13;;;9.40;;
53389;SDS011;39288;42.970;1.524;2023-04-29T02:14:29;10.53;;;9.43;;
53389;SDS011;39288;42.970;1.524;2023-04-29T02:15:30;12.98;;;9.35;;
53389;SDS011;39288;42.970;1.524;2023-04-29T02:16:31;11.87;;;8.47;;
53389;SDS011;39288;42.970;1.524;2023-04-29T02:17:32;8.97;;;8.00;;
53389;SDS011;39288;42.970;1.524;2023-04-29T02:18:33;10.63;;;9.52;;
53389;SDS011;39288;42.970;1.524;2023-04-29T02:19:33;12.87;;;8.57;;
53389;SDS011;39288;42.970;1.524;2023-04-29T02:20:34;10.37;;;8.07;;
53389;SDS011;39288;42.970;1.524;2023-04-29T02:21:34;10.87;;;8.13;;
53389;SDS011;39288;42.970;1.524;2023-04-29T02:22:35;12.47;;;10.03;;
53389;SDS011;39288;42.970;1.524;2023-04-29T02:23:35;11.17;;;9.43;;
53389;SDS011;39288;42.970;1.524;2023-04-29T02:24:36;12.83;;;10.23;;
53389;SDS011;39288;42.970;1.524;2023-04-29T02:25:37;13.68;;;12.40;;
53389;SDS011;39288;42.970;1.524;2023-04-29T02:26:38;13.15;;;11.65;;
53389;SDS011;39288;42.970;1.524;2023-04-29T02:27:39;12.70;;;10.60;;
53389;SDS011;39288;42.970;1.524;2023-04-29T02:28:39;14.37;;;11.30;;
53389;SDS011;39288;42.970;1.524;2023-04-29T02:29:40;18.03;;;12.03;;
53389;SDS011;39288;42.970;1.524;2023-04-29T02:30:40;13.33;;;10.97;;
53389;SDS011;39288;42.970;1.524;2023-04-29T02:31:41;13.47;;;11.33;;
53389;SDS011;39288;42.970;1.524;2023-04-29T02:32:41;13.43;;;11.43;;
53389;SDS011;39288;42.970;1.524;2023-04-29T02:33:42;12.53;;;10.97;;
53389;SDS011;39288;42.970;1.524;2023-04-29T02:34:42;14.03;;;11.40;;
53389;SDS011;39288;42.970;1.524;2023-04-29T02:35:43;14.60;;;11.23;;
53389;SDS011;39288;42.970;1.524;2023-04-29T02:36:44;16.37;;;12.10;;
53389;SDS011;39288;42.970;1.524;2023-04-29T02:37:44;13.63;;;12.13;;
53389;SDS011;39288;42.970;1.524;2023-04-29T02:38:45;12.93;;;11.27;;
53389;SDS011;39288;42.970;1.524;2023-04-29T02:39:45;17.30;;;12.13;;
53389;SDS011;39288;42.970;1.524;2023-04-29T02:40:46;13.30;;;11.17;;
53389;SDS011;39288;42.970;1.524;2023-04-29T02:41:46;20.03;;;13.77;;
53389;SDS011;39288;42.970;1.524;2023-04-29T02:42:47;21.53;;;16.20;;
53389;SDS011;39288;42.970;1.524;2023-04-29T02:43:47;17.60;;;14.63;;
53389;SDS011;39288;42.970;1.524;2023-04-29T02:44:48;16.73;;;13.33;;
53389;SDS011;39288;42.970;1.524;2023-04-29T02:45:48;17.93;;;14.50;;
53389;SDS011;39288;42.970;1.524;2023-04-29T02:46:49;15.30;;;13.17;;
53389;SDS011;39288;42.970;1.524;2023-04-29T02:47:49;18.40;;;15.10;;
53389;SDS011;39288;42.970;1.524;2023-04-29T02:48:50;15.33;;;11.87;;
53389;SDS011;39288;42.970;1.524;2023-04-29T02:49:50;23.13;;;18.17;;
53389;SDS011;39288;42.970;1.524;2023-04-29T02:50:51;24.23;;;20.03;;
53389;SDS011;39288;42.970;1.524;2023-04-29T02:51:51;22.07;;;17.17;;
53389;SDS011;39288;42.970;1.524;2023-04-29T02:52:52;21.13;;;17.50;;
53389;SDS011;39288;42.970;1.524;2023-04-29T02:53:52;22.50;;;18.57;;
53389;SDS011;39288;42.970;1.524;2023-04-29T02:54:53;24.60;;;21.13;;
53389;SDS011;39288;42.970;1.524;2023-04-29T02:55:53;27.23;;;21.20;;
53389;SDS011;39288;42.970;1.524;2023-04-29T02:56:54;26.48;;;21.05;;
53389;SDS011;39288;42.970;1.524;2023-04-29T02:57:55;22.93;;;20.47;;
53389;SDS011;39288;42.970;1.524;2023-04-29T02:58:55;25.47;;;21.23;;
53389;SDS011;39288;42.970;1.524;2023-04-29T02:59:56;25.17;;;20.90;;
53389;SDS011;39288;42.970;1.524;2023-04-29T03:00:56;26.63;;;20.60;;
53389;SDS011;39288;42.970;1.524;2023-04-29T03:01:57;23.33;;;19.93;;
53389;SDS011;39288;42.970;1.524;2023-04-29T03:02:57;24.90;;;19.97;;
53389;SDS011;39288;42.970;1.524;2023-04-29T03:03:58;28.10;;;22.00;;
53389;SDS011;39288;42.970;1.524;2023-04-29T03:04:58;27.70;;;20.50;;
53389;SDS011;39288;42.970;1.524;2023-04-29T03:05:59;28.43;;;21.37;;
53389;SDS011;39288;42.970;1.524;2023-04-29T03:06:59;29.10;;;22.37;;
53389;SDS011;39288;42.970;1.524;2023-04-29T03:08:00;25.73;;;21.07;;
53389;SDS011;39288;42.970;1.524;2023-04-29T03:09:00;28.07;;;22.83;;
53389;SDS011;39288;42.970;1.524;2023-04-29T03:10:01;29.73;;;21.00;;
53389;SDS011;39288;42.970;1.524;2023-04-29T03:11:02;30.10;;;23.23;;
53389;SDS011;39288;42.970;1.524;2023-04-29T03:12:02;24.63;;;21.60;;
53389;SDS011;39288;42.970;1.524;2023-04-29T03:13:03;26.17;;;21.20;;
53389;SDS011;39288;42.970;1.524;2023-04-29T03:14:03;28.43;;;21.30;;
53389;SDS011;39288;42.970;1.524;2023-04-29T03:15:05;30.33;;;21.27;;
53389;SDS011;39288;42.970;1.524;2023-04-29T03:16:06;22.80;;;19.48;;
53389;SDS011;39288;42.970;1.524;2023-04-29T03:17:07;26.25;;;19.95;;
53389;SDS011;39288;42.970;1.524;2023-04-29T03:18:08;23.87;;;20.40;;
53389;SDS011;39288;42.970;1.524;2023-04-29T03:19:08;35.23;;;22.07;;
53389;SDS011;39288;42.970;1.524;2023-04-29T03:20:09;32.60;;;22.60;;
53389;SDS011;39288;42.970;1.524;2023-04-29T03:21:10;35.17;;;22.83;;
53389;SDS011;39288;42.970;1.524;2023-04-29T03:22:11;30.03;;;22.10;;
53389;SDS011;39288;42.970;1.524;2023-04-29T03:23:11;32.97;;;24.10;;
53389;SDS011;39288;42.970;1.524;2023-04-29T03:24:12;33.63;;;23.07;;
53389;SDS011;39288;42.970;1.524;2023-04-29T03:25:12;29.75;;;23.30;;
53389;SDS011;39288;42.970;1.524;2023-04-29T03:26:13;30.70;;;22.27;;
53389;SDS011;39288;42.970;1.524;2023-04-29T03:27:13;30.50;;;23.13;;
53389;SDS011;39288;42.970;1.524;2023-04-29T03:28:14;33.03;;;23.73;;
53389;SDS011;39288;42.970;1.524;2023-04-29T03:29:14;38.27;;;24.27;;
53389;SDS011;39288;42.970;1.524;2023-04-29T03:30:15;29.43;;;22.50;;
53389;SDS011;39288;42.970;1.524;2023-04-29T03:31:15;33.83;;;23.57;;
53389;SDS011;39288;42.970;1.524;2023-04-29T03:32:16;31.13;;;22.80;;
53389;SDS011;39288;42.970;1.524;2023-04-29T03:33:16;33.10;;;22.33;;
53389;SDS011;39288;42.970;1.524;2023-04-29T03:34:17;33.87;;;23.87;;
53389;SDS011;39288;42.970;1.524;2023-04-29T03:35:17;33.37;;;24.87;;
53389;SDS011;39288;42.970;1.524;2023-04-29T03:36:18;37.27;;;24.40;;
53389;SDS011;39288;42.970;1.524;2023-04-29T03:37:18;34.83;;;24.93;;
53389;SDS011;39288;42.970;1.524;2023-04-29T03:38:19;33.20;;;23.80;;
53389;SDS011;39288;42.970;1.524;2023-04-29T03:39:19;38.57;;;26.17;;
53389;SDS011;39288;42.970;1.524;2023-04-29T03:40:20;35.30;;;25.33;;
53389;SDS011;39288;42.970;1.524;2023-04-29T03:41:20;34.17;;;25.53;;
53389;SDS011;39288;42.970;1.524;2023-04-29T03:42:23;32.22;;;24.38;;
53389;SDS011;39288;42.970;1.524;2023-04-29T03:43:23;34.30;;;24.93;;
53389;SDS011;39288;42.970;1.524;2023-04-29T03:44:24;34.77;;;24.20;;
53389;SDS011;39288;42.970;1.524;2023-04-29T03:45:25;33.15;;;23.63;;
53389;SDS011;39288;42.970;1.524;2023-04-29T03:46:26;36.87;;;24.57;;
53389;SDS011;39288;42.970;1.524;2023-04-29T03:47:26;31.47;;;23.53;;
53389;SDS011;39288;42.970;1.524;2023-04-29T03:48:27;33.83;;;24.00;;
53389;SDS011;39288;42.970;1.524;2023-04-29T03:49:27;33.27;;;24.17;;
53389;SDS011;39288;42.970;1.524;2023-04-29T03:50:28;34.30;;;25.07;;
53389;SDS011;39288;42.970;1.524;2023-04-29T03:51:29;29.00;;;23.52;;
53389;SDS011;39288;42.970;1.524;2023-04-29T03:52:29;29.07;;;23.33;;
53389;SDS011;39288;42.970;1.524;2023-04-29T03:53:29;30.80;;;24.10;;
53389;SDS011;39288;42.970;1.524;2023-04-29T03:54:30;35.37;;;25.13;;
53389;SDS011;39288;42.970;1.524;2023-04-29T03:55:31;32.97;;;25.27;;
53389;SDS011;39288;42.970;1.524;2023-04-29T03:56:31;37.00;;;25.33;;
53389;SDS011;39288;42.970;1.524;2023-04-29T03:57:32;34.43;;;26.77;;
53389;SDS011;39288;42.970;1.524;2023-04-29T03:58:32;35.93;;;25.63;;
53389;SDS011;39288;42.970;1.524;2023-04-29T03:59:33;32.00;;;24.93;;
53389;SDS011;39288;42.970;1.524;2023-04-29T04:00:33;37.30;;;27.57;;
53389;SDS011;39288;42.970;1.524;2023-04-29T04:01:33;38.83;;;26.87;;
53389;SDS011;39288;42.970;1.524;2023-04-29T04:02:34;40.50;;;29.70;;
53389;SDS011;39288;42.970;1.524;2023-04-29T04:03:35;38.97;;;27.03;;
53389;SDS011;39288;42.970;1.524;2023-04-29T04:04:35;39.23;;;27.90;;
53389;SDS011;39288;42.970;1.524;2023-04-29T04:05:36;40.70;;;27.87;;
53389;SDS011;39288;42.970;1.524;2023-04-29T04:06:36;33.87;;;25.87;;
53389;SDS011;39288;42.970;1.524;2023-04-29T04:07:36;37.93;;;27.27;;
53389;SDS011;39288;42.970;1.524;2023-04-29T04:08:37;33.03;;;26.03;;
53389;SDS011;39288;42.970;1.524;2023-04-29T04:09:37;37.37;;;26.50;;
53389;SDS011;39288;42.970;1.524;2023-04-29T04:10:38;36.17;;;27.20;;
53389;SDS011;39288;42.970;1.524;2023-04-29T04:11:38;54.93;;;29.37;;
53389;SDS011;39288;42.970;1.524;2023-04-29T04:12:39;42.30;;;27.42;;
53389;SDS011;39288;42.970;1.524;2023-04-29T04:13:42;44.85;;;27.02;;
53389;SDS011;39288;42.970;1.524;2023-04-29T04:14:43;31.53;;;24.03;;
53389;SDS011;39288;42.970;1.524;2023-04-29T04:15:50;39.67;;;27.47;;
53389;SDS011;39288;42.970;1.524;2023-04-29T04:16:51;37.88;;;26.42;;
53389;SDS011;39288;42.970;1.524;2023-04-29T04:17:51;41.07;;;27.97;;
53389;SDS011;39288;42.970;1.524;2023-04-29T04:18:51;48.87;;;29.33;;
53389;SDS011;39288;42.970;1.524;2023-04-29T04:19:52;37.90;;;26.60;;
53389;SDS011;39288;42.970;1.524;2023-04-29T04:20:53;36.13;;;25.90;;
53389;SDS011;39288;42.970;1.524;2023-04-29T04:21:53;33.20;;;25.13;;
53389;SDS011;39288;42.970;1.524;2023-04-29T04:22:54;32.73;;;24.80;;
53389;SDS011;39288;42.970;1.524;2023-04-29T04:23:54;39.10;;;25.23;;
53389;SDS011;39288;42.970;1.524;2023-04-29T04:24:55;29.70;;;25.13;;
53389;SDS011;39288;42.970;1.524;2023-04-29T04:25:55;36.73;;;27.00;;
53389;SDS011;39288;42.970;1.524;2023-04-29T04:26:57;32.00;;;25.45;;
53389;SDS011;39288;42.970;1.524;2023-04-29T04:27:57;35.13;;;25.73;;
53389;SDS011;39288;42.970;1.524;2023-04-29T04:28:58;34.47;;;25.67;;
53389;SDS011;39288;42.970;1.524;2023-04-29T04:29:58;34.10;;;26.53;;
53389;SDS011;39288;42.970;1.524;2023-04-29T04:30:58;31.20;;;25.17;;
53389;SDS011;39288;42.970;1.524;2023-04-29T04:31:59;42.17;;;28.07;;
53389;SDS011;39288;42.970;1.524;2023-04-29T04:33:02;36.97;;;28.20;;
53389;SDS011;39288;42.970;1.524;2023-04-29T04:34:03;38.87;;;29.10;;
53389;SDS011;39288;42.970;1.524;2023-04-29T04:35:03;35.73;;;27.57;;
53389;SDS011;39288;42.970;1.524;2023-04-29T04:36:05;37.10;;;27.83;;
53389;SDS011;39288;42.970;1.524;2023-04-29T04:37:05;33.05;;;26.38;;
53389;SDS011;39288;42.970;1.524;2023-04-29T04:38:06;34.27;;;26.50;;
53389;SDS011;39288;42.970;1.524;2023-04-29T04:39:06;36.20;;;25.37;;
53389;SDS011;39288;42.970;1.524;2023-04-29T04:40:07;36.87;;;27.53;;
53389;SDS011;39288;42.970;1.524;2023-04-29T04:41:10;35.20;;;27.27;;
53389;SDS011;39288;42.970;1.524;2023-04-29T04:42:10;38.10;;;27.43;;
53389;SDS011;39288;42.970;1.524;2023-04-29T04:43:11;34.60;;;26.60;;
53389;SDS011;39288;42.970;1.524;2023-04-29T04:44:11;33.93;;;26.77;;
53389;SDS011;39288;42.970;1.524;2023-04-29T04:45:13;29.58;;;24.08;;
53389;SDS011;39288;42.970;1.524;2023-04-29T04:46:14;33.33;;;25.70;;
53389;SDS011;39288;42.970;1.524;2023-04-29T04:47:15;32.00;;;25.48;;
53389;SDS011;39288;42.970;1.524;2023-04-29T04:48:15;30.77;;;25.07;;
53389;SDS011;39288;42.970;1.524;2023-04-29T04:49:16;31.97;;;25.10;;
53389;SDS011;39288;42.970;1.524;2023-04-29T04:50:16;26.13;;;23.33;;
53389;SDS011;39288;42.970;1.524;2023-04-29T04:51:17;29.17;;;23.80;;
53389;SDS011;39288;42.970;1.524;2023-04-29T04:52:21;21.97;;;19.10;;
53389;SDS011;39288;42.970;1.524;2023-04-29T04:53:22;26.10;;;21.25;;
53389;SDS011;39288;42.970;1.524;2023-04-29T04:54:22;28.27;;;21.60;;
53389;SDS011;39288;42.970;1.524;2023-04-29T04:55:23;25.90;;;21.83;;
53389;SDS011;39288;42.970;1.524;2023-04-29T04:56:25;25.17;;;21.13;;
53389;SDS011;39288;42.970;1.524;2023-04-29T04:57:25;27.73;;;22.02;;
53389;SDS011;39288;42.970;1.524;2023-04-29T04:58:26;26.50;;;20.30;;
53389;SDS011;39288;42.970;1.524;2023-04-29T04:59:26;23.10;;;20.37;;
53389;SDS011;39288;42.970;1.524;2023-04-29T05:00:27;24.27;;;20.87;;
53389;SDS011;39288;42.970;1.524;2023-04-29T05:01:27;23.67;;;19.57;;
53389;SDS011;39288;42.970;1.524;2023-04-29T05:02:28;25.90;;;20.13;;
53389;SDS011;39288;42.970;1.524;2023-04-29T05:03:28;25.50;;;20.00;;
53389;SDS011;39288;42.970;1.524;2023-04-29T05:04:29;22.10;;;18.10;;
53389;SDS011;39288;42.970;1.524;2023-04-29T05:05:29;21.17;;;18.97;;
53389;SDS011;39288;42.970;1.524;2023-04-29T05:06:32;24.15;;;18.55;;
53389;SDS011;39288;42.970;1.524;2023-04-29T05:07:33;22.40;;;20.00;;
53389;SDS011;39288;42.970;1.524;2023-04-29T05:08:36;20.98;;;17.55;;
53389;SDS011;39288;42.970;1.524;2023-04-29T05:09:37;24.17;;;18.70;;
53389;SDS011;39288;42.970;1.524;2023-04-29T05:10:37;21.00;;;18.30;;
53389;SDS011;39288;42.970;1.524;2023-04-29T05:11:38;21.47;;;17.13;;
53389;SDS011;39288;42.970;1.524;2023-04-29T05:12:38;24.40;;;17.73;;
53389;SDS011;39288;42.970;1.524;2023-04-29T05:13:38;21.63;;;18.20;;
53389;SDS011;39288;42.970;1.524;2023-04-29T05:14:39;21.83;;;17.70;;
53389;SDS011;39288;42.970;1.524;2023-04-29T05:15:39;21.70;;;17.43;;
53389;SDS011;39288;42.970;1.524;2023-04-29T05:16:40;24.13;;;18.07;;
53389;SDS011;39288;42.970;1.524;2023-04-29T05:17:42;23.50;;;18.10;;
53389;SDS011;39288;42.970;1.524;2023-04-29T05:18:43;22.37;;;17.93;;
53389;SDS011;39288;42.970;1.524;2023-04-29T05:20:45;22.33;;;17.73;;
53389;SDS011;39288;42.970;1.524;2023-04-29T05:21:46;22.80;;;17.47;;
53389;SDS011;39288;42.970;1.524;2023-04-29T05:22:46;25.20;;;18.07;;
53389;SDS011;39288;42.970;1.524;2023-04-29T05:23:47;28.13;;;18.53;;
53389;SDS011;39288;42.970;1.524;2023-04-29T05:24:47;26.10;;;19.13;;
53389;SDS011;39288;42.970;1.524;2023-04-29T05:25:48;28.07;;;18.80;;
53389;SDS011;39288;42.970;1.524;2023-04-29T05:26:48;25.07;;;18.57;;
53389;SDS011;39288;42.970;1.524;2023-04-29T05:27:50;26.20;;;18.92;;
53389;SDS011;39288;42.970;1.524;2023-04-29T05:28:52;28.08;;;20.08;;
53389;SDS011;39288;42.970;1.524;2023-04-29T05:29:54;28.52;;;19.35;;
53389;SDS011;39288;42.970;1.524;2023-04-29T05:30:55;26.43;;;19.33;;
53389;SDS011;39288;42.970;1.524;2023-04-29T05:31:55;28.33;;;18.70;;
53389;SDS011;39288;42.970;1.524;2023-04-29T05:32:56;31.65;;;17.60;;
53389;SDS011;39288;42.970;1.524;2023-04-29T05:33:57;23.70;;;15.93;;
53389;SDS011;39288;42.970;1.524;2023-04-29T05:34:58;23.23;;;17.27;;
53389;SDS011;39288;42.970;1.524;2023-04-29T05:35:58;23.17;;;15.37;;
53389;SDS011;39288;42.970;1.524;2023-04-29T05:36:59;20.23;;;14.73;;
53389;SDS011;39288;42.970;1.524;2023-04-29T05:37:59;22.53;;;16.07;;
53389;SDS011;39288;42.970;1.524;2023-04-29T05:39:00;26.03;;;15.60;;
53389;SDS011;39288;42.970;1.524;2023-04-29T05:40:00;17.43;;;13.93;;
53389;SDS011;39288;42.970;1.524;2023-04-29T05:41:01;17.20;;;12.77;;
53389;SDS011;39288;42.970;1.524;2023-04-29T05:42:02;18.08;;;13.68;;
53389;SDS011;39288;42.970;1.524;2023-04-29T05:43:03;18.60;;;14.37;;
53389;SDS011;39288;42.970;1.524;2023-04-29T05:44:03;22.43;;;14.23;;
53389;SDS011;39288;42.970;1.524;2023-04-29T05:45:04;18.60;;;13.80;;
53389;SDS011;39288;42.970;1.524;2023-04-29T05:46:05;19.98;;;14.50;;
53389;SDS011;39288;42.970;1.524;2023-04-29T05:47:06;18.33;;;14.73;;
53389;SDS011;39288;42.970;1.524;2023-04-29T05:48:06;15.47;;;12.60;;
53389;SDS011;39288;42.970;1.524;2023-04-29T05:49:07;15.20;;;10.90;;
53389;SDS011;39288;42.970;1.524;2023-04-29T05:50:08;13.30;;;10.87;;
53389;SDS011;39288;42.970;1.524;2023-04-29T05:51:09;13.73;;;11.67;;
53389;SDS011;39288;42.970;1.524;2023-04-29T05:52:09;16.70;;;11.63;;
53389;SDS011;39288;42.970;1.524;2023-04-29T05:53:10;17.45;;;12.48;;
53389;SDS011;39288;42.970;1.524;2023-04-29T05:54:11;18.57;;;12.50;;
53389;SDS011;39288;42.970;1.524;2023-04-29T05:55:12;13.93;;;10.40;;
53389;SDS011;39288;42.970;1.524;2023-04-29T05:56:13;13.73;;;10.17;;
53389;SDS011;39288;42.970;1.524;2023-04-29T05:57:13;17.77;;;10.57;;
53389;SDS011;39288;42.970;1.524;2023-04-29T05:58:14;13.73;;;10.33;;
53389;SDS011;39288;42.970;1.524;2023-04-29T05:59:14;12.93;;;10.87;;
53389;SDS011;39288;42.970;1.524;2023-04-29T06:00:15;15.47;;;10.67;;
53389;SDS011;39288;42.970;1.524;2023-04-29T06:01:15;14.83;;;10.40;;
53389;SDS011;39288;42.970;1.524;2023-04-29T06:02:16;15.27;;;10.20;;
53389;SDS011;39288;42.970;1.524;2023-04-29T06:03:17;14.30;;;10.23;;
53389;SDS011;39288;42.970;1.524;2023-04-29T06:04:17;12.87;;;9.40;;
53389;SDS011;39288;42.970;1.524;2023-04-29T06:05:18;13.50;;;9.77;;
53389;SDS011;39288;42.970;1.524;2023-04-29T06:06:18;15.50;;;10.40;;
53389;SDS011;39288;42.970;1.524;2023-04-29T06:07:19;12.17;;;10.07;;
53389;SDS011;39288;42.970;1.524;2023-04-29T06:08:20;11.90;;;9.97;;
53389;SDS011;39288;42.970;1.524;2023-04-29T06:10:26;13.82;;;9.95;;
53389;SDS011;39288;42.970;1.524;2023-04-29T06:11:26;15.27;;;10.83;;
53389;SDS011;39288;42.970;1.524;2023-04-29T06:12:27;14.93;;;11.00;;
53389;SDS011;39288;42.970;1.524;2023-04-29T06:13:28;13.38;;;10.35;;
53389;SDS011;39288;42.970;1.524;2023-04-29T06:14:30;13.27;;;10.25;;
53389;SDS011;39288;42.970;1.524;2023-04-29T06:15:30;15.77;;;10.53;;